createdAt,value
2023-12-19T00:02:22.349Z,5.40
2023-12-19T00:05:24.050Z,5.50
2023-12-19T00:08:25.641Z,5.60
2023-12-19T00:11:27.300Z,5.20
2023-12-19T00:14:28.862Z,5.50
2023-12-19T00:17:30.902Z,5.10
2023-12-19T00:20:32.687Z,6.50
2023-12-19T00:23:34.403Z,5.50
2023-12-19T00:26:35.959Z,5.10
2023-12-19T00:29:37.576Z,5.40
2023-12-19T00:32:39.522Z,5.20
2023-12-19T00:35:41.103Z,6.20
2023-12-19T00:38:42.778Z,5.40
2023-12-19T00:41:44.713Z,5.30
2023-12-19T00:44:46.338Z,5.40
2023-12-19T00:47:48.116Z,5.70
2023-12-19T00:50:50.230Z,5.70
2023-12-19T00:53:52.034Z,5.30
2023-12-19T00:56:53.821Z,5.30
2023-12-19T00:59:55.916Z,5.30
2023-12-19T01:02:57.561Z,5.70
2023-12-19T01:06:01.409Z,5.20
2023-12-19T01:09:03.452Z,5.50
2023-12-19T01:12:05.308Z,5.50
2023-12-19T01:15:07.649Z,5.40
2023-12-19T01:18:10.135Z,5.40
2023-12-19T01:21:11.784Z,5.20
2023-12-19T01:24:14.081Z,5.70
2023-12-19T01:27:15.683Z,5.40
2023-12-19T01:30:17.337Z,5.20
2023-12-19T01:33:19.163Z,5.40
2023-12-19T01:36:21.421Z,7.40
2023-12-19T01:39:23.076Z,5.30
2023-12-19T01:42:25.257Z,5.40
2023-12-19T01:45:28.985Z,5.60
2023-12-19T01:48:31.176Z,5.50
2023-12-19T01:51:33.763Z,5.50
2023-12-19T01:54:38.752Z,5.40
2023-12-19T01:57:40.483Z,5.60
2023-12-19T02:00:42.294Z,5.70
2023-12-19T02:03:46.251Z,5.50
2023-12-19T02:06:48.298Z,6.20
2023-12-19T02:09:49.946Z,5.80
2023-12-19T02:12:51.603Z,5.70
2023-12-19T02:15:53.506Z,5.60
2023-12-19T02:19:06.041Z,5.70
2023-12-19T02:22:07.830Z,5.50
2023-12-19T02:25:09.727Z,5.20
2023-12-19T02:28:11.903Z,5.50
2023-12-19T02:31:13.751Z,6.40
2023-12-19T02:34:15.530Z,5.50
2023-12-19T02:37:17.239Z,5.60
2023-12-19T02:40:19.082Z,5.20
2023-12-19T02:43:20.691Z,5.20
2023-12-19T02:46:23.359Z,5.20
2023-12-19T02:49:25.173Z,5.60
2023-12-19T02:52:26.845Z,5.30
2023-12-19T02:55:29.441Z,5.60
2023-12-19T02:58:32.929Z,5.30
2023-12-19T03:01:34.881Z,5.30
2023-12-19T03:04:36.656Z,5.30
2023-12-19T03:07:38.488Z,5.40
2023-12-19T03:10:40.144Z,5.40
2023-12-19T03:13:42.012Z,6.90
2023-12-19T03:16:43.607Z,5.40
2023-12-19T03:19:46.389Z,5.60
2023-12-19T03:22:48.084Z,5.60
2023-12-19T03:25:49.686Z,5.50
2023-12-19T03:28:52.534Z,5.60
2023-12-19T03:31:55.340Z,5.30
2023-12-19T03:34:56.979Z,5.70
2023-12-19T03:37:59.294Z,5.70
2023-12-19T03:41:01.398Z,5.40
2023-12-19T03:44:03.150Z,5.50
2023-12-19T03:47:04.874Z,6.60
2023-12-19T03:50:07.779Z,5.80
2023-12-19T03:53:09.358Z,5.80
2023-12-19T03:56:11.259Z,5.60
2023-12-19T03:59:13.223Z,5.60
2023-12-19T04:02:14.862Z,5.70
2023-12-19T04:05:16.440Z,5.60
2023-12-19T04:08:18.064Z,5.70
2023-12-19T04:11:21.086Z,5.70
2023-12-19T04:14:24.662Z,5.80
2023-12-19T04:17:26.400Z,5.50
2023-12-19T04:20:27.990Z,5.40
2023-12-19T04:23:29.700Z,5.70
2023-12-19T04:26:31.428Z,5.80
2023-12-19T04:29:33.045Z,6.70
2023-12-19T04:32:34.815Z,5.60
2023-12-19T04:35:36.519Z,5.60
2023-12-19T04:38:39.376Z,5.90
2023-12-19T04:41:41.063Z,5.60
2023-12-19T04:44:42.724Z,5.90
2023-12-19T04:47:44.419Z,6.00
2023-12-19T04:50:46.056Z,5.80
2023-12-19T04:53:48.889Z,5.70
2023-12-19T04:56:51.644Z,5.70
2023-12-19T04:59:53.351Z,5.50
2023-12-19T05:02:57.307Z,6.00
2023-12-19T05:05:59.676Z,5.40
2023-12-19T05:09:01.459Z,5.70
2023-12-19T05:12:03.634Z,5.50
2023-12-19T05:15:05.997Z,5.80
2023-12-19T05:18:07.689Z,5.80
2023-12-19T05:21:10.669Z,5.80
2023-12-19T05:24:12.325Z,5.80
2023-12-19T05:27:14.035Z,5.80
2023-12-19T05:30:16.519Z,5.70
2023-12-19T05:33:18.105Z,6.70
2023-12-19T05:36:19.810Z,5.90
2023-12-19T05:39:21.449Z,6.00
2023-12-19T05:42:23.949Z,6.30
2023-12-19T05:45:25.991Z,6.00
2023-12-19T05:48:27.878Z,6.20
2023-12-19T05:51:30.197Z,6.00
2023-12-19T05:54:31.874Z,6.40
2023-12-19T05:57:33.477Z,6.00
2023-12-19T06:00:35.770Z,6.00
2023-12-19T06:03:38.074Z,6.30
2023-12-19T06:06:45.073Z,6.20
2023-12-19T06:09:46.820Z,5.80
2023-12-19T06:12:48.664Z,7.30
2023-12-19T06:15:50.325Z,6.10
2023-12-19T06:18:52.003Z,5.70
2023-12-19T06:21:53.650Z,6.30
2023-12-19T06:24:55.371Z,6.60
2023-12-19T06:27:57.636Z,6.30
2023-12-19T06:30:59.297Z,6.40
2023-12-19T06:34:01.073Z,6.20
2023-12-19T06:37:03.789Z,6.10
2023-12-19T06:40:05.886Z,6.50
2023-12-19T06:43:11.517Z,6.20
2023-12-19T06:46:17.009Z,6.20
2023-12-19T06:49:18.830Z,6.30
2023-12-19T06:52:21.018Z,6.30
2023-12-19T06:55:22.634Z,6.30
2023-12-19T06:58:24.268Z,6.30
2023-12-19T07:01:27.085Z,6.40
2023-12-19T07:04:29.054Z,6.40
2023-12-19T07:07:30.647Z,6.10
2023-12-19T07:10:32.571Z,6.30
2023-12-19T07:13:34.163Z,6.50
2023-12-19T07:16:36.195Z,6.60
2023-12-19T07:19:38.083Z,6.50
2023-12-19T07:22:41.592Z,6.40
2023-12-19T07:25:43.367Z,6.50
2023-12-19T07:28:44.956Z,7.70
2023-12-19T07:31:46.575Z,6.50
2023-12-19T07:34:48.359Z,6.40
2023-12-19T07:37:49.953Z,6.50
2023-12-19T07:40:51.528Z,6.60
2023-12-19T07:43:53.417Z,6.50
2023-12-19T07:46:55.017Z,6.70
2023-12-19T07:49:56.685Z,6.70
2023-12-19T07:52:58.283Z,6.80
2023-12-19T07:56:01.896Z,6.60
2023-12-19T07:59:03.543Z,6.70
2023-12-19T08:02:05.142Z,6.60
2023-12-19T08:05:11.040Z,7.10
2023-12-19T08:08:12.683Z,6.80
2023-12-19T08:11:15.300Z,6.50
2023-12-19T08:14:16.907Z,6.60
2023-12-19T08:17:19.877Z,6.70
2023-12-19T08:20:21.654Z,7.00
2023-12-19T08:23:23.776Z,6.80
2023-12-19T08:26:25.654Z,6.80
2023-12-19T08:29:27.284Z,6.60
2023-12-19T08:32:28.846Z,6.80
2023-12-19T08:35:30.836Z,6.70
2023-12-19T08:38:32.607Z,6.50
2023-12-19T08:41:34.500Z,7.00
2023-12-19T08:44:36.063Z,6.80
2023-12-19T08:47:37.616Z,7.00
2023-12-19T08:50:39.238Z,7.00
2023-12-19T08:53:40.826Z,6.90
2023-12-19T08:56:43.287Z,7.10
2023-12-19T08:59:44.993Z,6.50
2023-12-19T09:02:48.052Z,6.80
2023-12-19T09:05:51.204Z,6.90
2023-12-19T09:08:52.845Z,7.00
2023-12-19T09:11:55.740Z,7.00
2023-12-19T09:14:57.738Z,7.10
2023-12-19T09:17:59.622Z,6.90
2023-12-19T09:21:01.850Z,7.20
2023-12-19T09:24:03.610Z,7.00
2023-12-19T09:27:05.521Z,6.70
2023-12-19T09:30:07.823Z,6.90
2023-12-19T09:33:09.490Z,7.00
2023-12-19T09:36:19.840Z,7.00
2023-12-19T09:39:22.565Z,7.10
2023-12-19T09:42:24.388Z,7.20
2023-12-19T09:45:26.340Z,6.90
2023-12-19T09:48:39.835Z,7.40
2023-12-19T09:51:44.154Z,7.10
2023-12-19T09:54:45.868Z,7.30
2023-12-19T09:57:47.977Z,7.20
2023-12-19T10:00:49.786Z,7.10
2023-12-19T10:03:56.561Z,7.30
2023-12-19T10:06:59.803Z,7.10
2023-12-19T10:10:01.805Z,7.10
2023-12-19T10:13:08.806Z,7.20
2023-12-19T10:16:30.722Z,7.30
2023-12-19T10:19:39.578Z,7.10
2023-12-19T10:22:41.430Z,7.20
2023-12-19T10:25:46.518Z,7.00
2023-12-19T10:28:56.710Z,7.10
2023-12-19T10:32:17.964Z,7.20
2023-12-19T10:35:19.675Z,7.10
2023-12-19T10:38:21.313Z,7.20
2023-12-19T10:41:30.795Z,7.40
2023-12-19T10:44:33.893Z,7.30
2023-12-19T10:47:35.660Z,7.20
2023-12-19T10:50:37.448Z,8.80
2023-12-19T10:53:42.102Z,7.10
2023-12-19T10:56:49.380Z,7.20
2023-12-19T10:59:57.264Z,9.20
2023-12-19T11:03:30.809Z,7.10
2023-12-19T11:06:36.676Z,7.20
2023-12-19T11:09:40.883Z,7.30
2023-12-19T11:12:43.833Z,7.20
2023-12-19T11:15:52.001Z,7.10
2023-12-19T11:19:19.518Z,7.30
2023-12-19T11:22:41.546Z,7.30
2023-12-19T11:25:55.227Z,6.90
2023-12-19T11:28:56.845Z,7.20
2023-12-19T11:31:58.417Z,7.30
2023-12-19T11:35:14.022Z,7.20
2023-12-19T11:38:25.988Z,7.00
2023-12-19T11:41:39.637Z,7.60
2023-12-19T11:44:41.219Z,7.40
2023-12-19T11:47:43.283Z,7.50
2023-12-19T11:50:45.202Z,7.90
2023-12-19T11:53:46.816Z,7.50
2023-12-19T11:56:59.999Z,7.70
2023-12-19T12:00:03.398Z,7.80
2023-12-19T12:03:12.002Z,7.70
2023-12-19T12:06:13.937Z,7.60
2023-12-19T12:09:19.058Z,7.50
2023-12-19T12:12:32.443Z,7.70
2023-12-19T12:15:34.064Z,7.40
2023-12-19T12:18:36.059Z,7.80
2023-12-19T12:21:47.868Z,7.60
2023-12-19T12:24:54.343Z,7.60
2023-12-19T12:28:09.632Z,7.50
2023-12-19T12:31:11.417Z,7.80
2023-12-19T12:34:13.826Z,7.60
2023-12-19T12:37:19.380Z,7.70
2023-12-19T12:40:21.042Z,7.70
2023-12-19T12:43:52.894Z,7.50
2023-12-19T12:46:54.597Z,9.60
2023-12-19T12:50:07.807Z,7.30
2023-12-19T12:53:15.700Z,7.60
2023-12-19T12:56:19.708Z,7.70
2023-12-19T12:59:23.661Z,7.70
2023-12-19T13:02:25.328Z,7.40
2023-12-19T13:05:27.023Z,7.50
2023-12-19T13:08:29.950Z,7.80
2023-12-19T13:11:31.532Z,7.50
2023-12-19T13:14:33.132Z,7.80
2023-12-19T13:17:34.790Z,7.40
2023-12-19T13:20:38.670Z,7.60
2023-12-19T13:23:42.408Z,7.70
2023-12-19T13:26:43.973Z,7.60
2023-12-19T13:29:45.632Z,7.20
2023-12-19T13:32:47.270Z,7.70
2023-12-19T13:35:49.166Z,7.30
2023-12-19T13:38:50.830Z,7.50
2023-12-19T13:41:54.225Z,7.60
2023-12-19T13:44:55.896Z,7.70
2023-12-19T13:47:59.737Z,7.40
2023-12-19T13:51:02.359Z,7.50
2023-12-19T13:54:04.187Z,7.40
2023-12-19T13:57:05.826Z,7.60
2023-12-19T14:00:10.181Z,7.20
2023-12-19T14:03:11.857Z,7.70
2023-12-19T14:06:13.898Z,7.60
2023-12-19T14:09:20.218Z,7.90
2023-12-19T14:12:22.112Z,7.60
2023-12-19T14:15:23.942Z,7.60
2023-12-19T14:18:25.659Z,7.50
2023-12-19T14:21:27.265Z,7.50
2023-12-19T14:24:29.295Z,7.70
2023-12-19T14:27:30.968Z,7.40
2023-12-19T14:30:32.661Z,7.80
2023-12-19T14:33:34.345Z,8.60
2023-12-19T14:36:35.971Z,7.30
2023-12-19T14:39:41.489Z,7.50
2023-12-19T14:42:43.246Z,7.80
2023-12-19T14:45:45.572Z,8.60
2023-12-19T14:48:48.247Z,7.30
2023-12-19T14:51:49.988Z,7.40
2023-12-19T14:54:51.743Z,7.70
2023-12-19T14:57:53.721Z,7.60
2023-12-19T15:00:55.394Z,7.60
2023-12-19T15:03:57.067Z,7.70
2023-12-19T15:06:58.967Z,7.70
2023-12-19T15:10:00.692Z,7.90
2023-12-19T15:13:03.520Z,7.90
2023-12-19T15:16:05.537Z,7.70
2023-12-19T15:19:08.916Z,7.90
2023-12-19T15:22:10.688Z,7.60
2023-12-19T15:25:12.536Z,9.40
2023-12-19T15:28:17.512Z,7.90
2023-12-19T15:31:22.183Z,7.80
2023-12-19T15:34:23.967Z,7.60
2023-12-19T15:37:26.201Z,7.90
2023-12-19T15:40:27.792Z,8.10
2023-12-19T15:43:37.835Z,6.30
2023-12-19T15:46:43.326Z,7.70
2023-12-19T15:49:45.298Z,7.70
2023-12-19T15:52:47.101Z,7.40
2023-12-19T15:55:48.730Z,7.70
2023-12-19T15:58:50.377Z,7.30
2023-12-19T16:01:54.001Z,9.50
2023-12-19T16:04:56.810Z,7.80
2023-12-19T16:07:58.453Z,7.60
2023-12-19T16:11:00.102Z,7.90
2023-12-19T16:14:03.994Z,8.20
2023-12-19T16:17:05.659Z,8.00
2023-12-19T16:20:08.206Z,8.20
2023-12-19T16:23:09.794Z,8.10
2023-12-19T16:26:12.359Z,7.60
2023-12-19T16:29:16.403Z,8.40
2023-12-19T16:32:18.298Z,8.20
2023-12-19T16:35:20.013Z,8.30
2023-12-19T16:38:23.129Z,8.00
2023-12-19T16:41:28.817Z,8.10
2023-12-19T16:44:30.607Z,8.00
2023-12-19T16:47:32.210Z,8.20
2023-12-19T16:50:35.833Z,8.00
2023-12-19T16:53:38.787Z,8.30
2023-12-19T16:56:40.960Z,8.40
2023-12-19T16:59:42.670Z,7.70
2023-12-19T17:02:44.469Z,8.00
2023-12-19T17:05:47.107Z,8.10
2023-12-19T17:08:49.718Z,8.00
2023-12-19T17:11:51.287Z,8.30
2023-12-19T17:14:52.862Z,8.40
2023-12-19T17:17:56.341Z,8.40
2023-12-19T17:20:58.006Z,8.20
2023-12-19T17:23:59.655Z,7.80
2023-12-19T17:27:01.222Z,8.20
2023-12-19T17:30:04.905Z,8.30
2023-12-19T17:33:06.627Z,8.20
2023-12-19T17:36:12.009Z,8.90
2023-12-19T17:39:14.500Z,8.10
2023-12-19T17:42:16.097Z,8.50
2023-12-19T17:45:17.752Z,8.10
2023-12-19T17:48:19.412Z,8.40
2023-12-19T17:51:24.457Z,8.40
2023-12-19T17:54:26.033Z,9.90
2023-12-19T17:57:27.656Z,8.00
2023-12-19T18:00:29.614Z,8.00
2023-12-19T18:03:31.463Z,8.10
2023-12-19T18:06:33.340Z,8.50
2023-12-19T18:09:35.045Z,7.80
2023-12-19T18:12:36.734Z,8.20
2023-12-19T18:15:38.380Z,8.20
2023-12-19T18:18:40.594Z,8.30
2023-12-19T18:21:43.359Z,8.30
2023-12-19T18:24:44.944Z,8.10
2023-12-19T18:27:46.585Z,8.10
2023-12-19T18:30:48.238Z,8.30
2023-12-19T18:33:49.886Z,8.20
2023-12-19T18:36:53.122Z,8.40
2023-12-19T18:39:55.286Z,8.10
2023-12-19T18:42:57.027Z,8.40
2023-12-19T18:45:59.592Z,8.40
2023-12-19T18:49:01.930Z,9.50
2023-12-19T18:52:04.133Z,8.40
2023-12-19T18:55:07.354Z,8.40
2023-12-19T18:58:09.138Z,8.50
2023-12-19T19:01:12.639Z,8.40
2023-12-19T19:04:14.601Z,8.30
2023-12-19T19:07:16.267Z,8.40
2023-12-19T19:10:18.876Z,8.40
2023-12-19T19:13:21.010Z,8.30
2023-12-19T19:16:22.691Z,8.10
2023-12-19T19:19:26.820Z,8.40
2023-12-19T19:22:31.381Z,8.60
2023-12-19T19:25:34.476Z,8.40
2023-12-19T19:28:36.289Z,8.70
2023-12-19T19:31:38.090Z,8.10
2023-12-19T19:34:42.951Z,8.40
2023-12-19T19:37:44.801Z,8.70
2023-12-19T19:40:48.659Z,8.10
2023-12-19T19:43:53.190Z,8.40
2023-12-19T19:46:54.881Z,8.30
2023-12-19T19:49:57.770Z,10.40
2023-12-19T19:52:59.573Z,8.50
2023-12-19T19:56:01.157Z,8.40
2023-12-19T19:59:05.052Z,8.40
2023-12-19T20:02:07.476Z,8.40
2023-12-19T20:05:09.551Z,8.50
2023-12-19T20:08:11.703Z,8.40
2023-12-19T20:11:13.670Z,8.60
2023-12-19T20:14:15.469Z,8.40
2023-12-19T20:17:17.248Z,8.40
2023-12-19T20:20:19.838Z,8.60
2023-12-19T20:23:27.681Z,8.50
2023-12-19T20:26:29.296Z,8.40
2023-12-19T20:29:31.005Z,8.70
2023-12-19T20:32:32.588Z,8.70
2023-12-19T20:35:34.502Z,8.10
2023-12-19T20:38:36.297Z,8.50
2023-12-19T20:41:38.222Z,8.40
2023-12-19T20:44:40.012Z,8.70
2023-12-19T20:47:42.677Z,8.20
2023-12-19T20:50:44.754Z,8.50
2023-12-19T20:53:46.493Z,9.20
2023-12-19T20:56:48.502Z,8.40
2023-12-19T20:59:54.394Z,8.80
2023-12-19T21:02:56.229Z,8.50
2023-12-19T21:06:00.691Z,8.60
2023-12-19T21:09:02.720Z,8.50
2023-12-19T21:12:04.713Z,8.70
2023-12-19T21:15:07.813Z,8.50
2023-12-19T21:18:09.420Z,8.30
2023-12-19T21:21:11.543Z,8.50
2023-12-19T21:24:13.247Z,8.70
2023-12-19T21:27:14.939Z,8.60
2023-12-19T21:30:16.815Z,8.60
2023-12-19T21:33:18.941Z,8.50
2023-12-19T21:36:20.841Z,8.50
2023-12-19T21:39:22.575Z,8.40
2023-12-19T21:42:27.285Z,8.40
2023-12-19T21:45:30.838Z,8.60
2023-12-19T21:48:32.510Z,8.50
2023-12-19T21:51:38.082Z,8.60
2023-12-19T21:54:41.045Z,7.80
2023-12-19T21:57:43.005Z,8.50
2023-12-19T22:00:45.037Z,8.40
2023-12-19T22:03:46.779Z,8.30
2023-12-19T22:06:48.470Z,8.30
2023-12-19T22:09:57.553Z,8.50
2023-12-19T22:13:03.817Z,8.70
2023-12-19T22:16:07.138Z,8.60
2023-12-19T22:19:09.168Z,8.60
2023-12-19T22:22:13.363Z,8.50
2023-12-19T22:25:15.504Z,8.90
2023-12-19T22:28:17.322Z,8.70
2023-12-19T22:31:19.053Z,8.80
2023-12-19T22:34:20.868Z,8.40
2023-12-19T22:37:22.635Z,8.70
2023-12-19T22:40:24.717Z,8.50
2023-12-19T22:43:26.580Z,8.50
2023-12-19T22:46:29.659Z,8.40
2023-12-19T22:49:32.752Z,8.50
2023-12-19T22:52:34.725Z,8.50
2023-12-19T22:55:47.483Z,8.70
2023-12-19T22:58:49.158Z,8.70
2023-12-19T23:01:54.243Z,8.60
2023-12-19T23:04:57.029Z,8.40
2023-12-19T23:07:58.712Z,8.50
2023-12-19T23:11:00.276Z,8.30
2023-12-19T23:14:02.338Z,8.60
2023-12-19T23:17:04.727Z,8.60
2023-12-19T23:20:06.910Z,8.60
2023-12-19T23:23:08.661Z,8.50
2023-12-19T23:26:10.327Z,8.50
2023-12-19T23:29:12.002Z,8.70
2023-12-19T23:32:14.202Z,8.40
2023-12-19T23:35:15.959Z,8.70
2023-12-19T23:38:17.643Z,8.60
2023-12-19T23:41:19.589Z,8.60
2023-12-19T23:44:21.148Z,8.50
2023-12-19T23:47:22.757Z,8.40
2023-12-19T23:50:24.361Z,8.10
2023-12-19T23:53:25.976Z,8.40
2023-12-19T23:56:27.721Z,8.40
2023-12-19T23:59:30.372Z,8.50
